createdAt,value
2018-07-05T00:02:05.879Z,76.10
2018-07-05T00:07:19.721Z,75.60
2018-07-05T00:10:00.616Z,75.70
2018-07-05T00:15:14.651Z,76.10
2018-07-05T00:17:55.200Z,76.50
2018-07-05T00:20:35.227Z,76.50
2018-07-05T00:23:15.308Z,76.70
2018-07-05T00:25:55.641Z,76.90
2018-07-05T00:28:35.422Z,77.20
2018-07-05T00:31:15.221Z,77.40
2018-07-05T00:33:55.049Z,77.70
2018-07-05T00:36:35.161Z,78.10
2018-07-05T00:39:14.940Z,78.00
2018-07-05T00:47:02.628Z,77.50
2018-07-05T00:49:42.659Z,77.60
2018-07-05T00:52:22.637Z,77.90
2018-07-05T00:55:02.601Z,77.70
2018-07-05T00:57:43.341Z,77.40
2018-07-05T01:00:23.444Z,77.30
2018-07-05T01:03:03.423Z,77.30
2018-07-05T01:08:17.291Z,76.80
2018-07-05T01:10:57.559Z,76.40
2018-07-05T01:13:37.384Z,76.30
2018-07-05T01:18:51.228Z,77.30
2018-07-05T01:21:31.163Z,77.90
2018-07-05T01:24:11.130Z,79.00
2018-07-05T01:26:51.110Z,79.70
2018-07-05T01:29:31.145Z,80.30
2018-07-05T01:34:45.048Z,81.00
2018-07-05T01:37:25.184Z,79.90
2018-07-05T01:40:05.291Z,78.90
2018-07-05T01:42:45.170Z,79.50
2018-07-05T01:45:25.286Z,79.80
2018-07-05T01:48:05.199Z,81.10
2018-07-05T01:50:45.885Z,81.50
2018-07-05T01:53:25.930Z,82.00
2018-07-05T01:56:05.876Z,82.20
2018-07-05T01:58:45.931Z,82.50
2018-07-05T02:01:25.820Z,82.30
2018-07-05T02:06:39.634Z,81.80
2018-07-05T02:09:20.362Z,82.10
2018-07-05T02:12:00.268Z,82.40
2018-07-05T02:14:40.191Z,82.60
2018-07-05T02:17:20.556Z,82.80
2018-07-05T02:20:00.489Z,81.70
2018-07-05T02:22:40.480Z,81.20
2018-07-05T02:25:20.378Z,81.20
2018-07-05T02:28:00.522Z,81.20
2018-07-05T02:30:40.324Z,80.60
2018-07-05T02:33:20.297Z,81.40
2018-07-05T02:38:34.308Z,82.50
2018-07-05T02:41:14.240Z,83.30
2018-07-05T02:43:54.274Z,83.70
2018-07-05T02:46:34.098Z,83.10
2018-07-05T02:54:22.251Z,81.90
2018-07-05T02:59:36.580Z,80.70
2018-07-05T03:02:16.521Z,81.10
2018-07-05T03:04:57.202Z,81.50
2018-07-05T03:07:37.379Z,81.50
2018-07-05T03:10:17.309Z,81.40
2018-07-05T03:12:57.263Z,82.90
2018-07-05T03:15:38.169Z,84.40
2018-07-05T03:18:17.985Z,84.90
2018-07-05T03:20:58.022Z,83.60
2018-07-05T03:23:38.006Z,83.60
2018-07-05T03:26:18.079Z,83.20
2018-07-05T03:31:32.413Z,83.90
2018-07-05T03:34:12.310Z,83.40
2018-07-05T03:36:52.384Z,83.80
2018-07-05T03:39:33.060Z,84.10
2018-07-05T03:42:12.983Z,85.30
2018-07-05T03:44:52.823Z,85.90
2018-07-05T03:47:32.810Z,86.10
2018-07-05T03:50:13.372Z,86.20
2018-07-05T03:52:53.453Z,86.50
2018-07-05T03:55:33.158Z,86.70
2018-07-05T03:58:13.201Z,86.00
2018-07-05T04:00:53.191Z,85.80
2018-07-05T04:03:33.122Z,85.70
2018-07-05T04:06:13.071Z,85.10
2018-07-05T04:08:53.108Z,84.80
2018-07-05T04:11:33.676Z,84.90
2018-07-05T04:14:13.656Z,85.20
2018-07-05T04:16:53.390Z,85.20
2018-07-05T04:19:33.425Z,86.00
2018-07-05T04:22:13.558Z,86.40
2018-07-05T04:24:53.449Z,87.00
2018-07-05T04:27:33.452Z,86.80
2018-07-05T04:30:13.369Z,87.00
2018-07-05T04:32:53.371Z,87.10
2018-07-05T04:35:34.702Z,86.80
2018-07-05T04:38:14.610Z,87.00
2018-07-05T04:40:54.581Z,87.00
2018-07-05T04:43:34.615Z,87.10
2018-07-05T04:46:14.594Z,87.20
2018-07-05T04:48:54.476Z,87.00
2018-07-05T04:51:34.491Z,87.90
2018-07-05T04:54:15.578Z,87.50
2018-07-05T04:56:55.562Z,87.50
2018-07-05T04:59:35.415Z,87.70
2018-07-05T05:02:15.301Z,87.50
2018-07-05T05:04:55.297Z,87.50
2018-07-05T05:07:35.193Z,87.30
2018-07-05T05:10:15.343Z,87.40
2018-07-05T05:12:55.485Z,87.30
2018-07-05T05:15:35.636Z,86.80
2018-07-05T05:18:15.724Z,86.90
2018-07-05T05:20:55.409Z,86.40
2018-07-05T05:23:35.417Z,85.70
2018-07-05T05:26:15.248Z,84.90
2018-07-05T05:28:56.345Z,84.70
2018-07-05T05:31:36.303Z,85.70
2018-07-05T05:36:50.229Z,86.60
2018-07-05T05:39:30.188Z,87.70
2018-07-05T05:42:10.344Z,86.80
2018-07-05T05:44:50.409Z,86.50
2018-07-05T05:47:31.253Z,86.10
2018-07-05T05:50:11.318Z,85.50
2018-07-05T05:52:51.805Z,85.40
2018-07-05T06:00:39.991Z,85.90
2018-07-05T06:03:19.920Z,86.30
2018-07-05T06:08:33.889Z,84.20
2018-07-05T06:13:48.619Z,83.00
2018-07-05T06:16:28.618Z,82.10
2018-07-05T06:19:08.614Z,81.10
2018-07-05T06:21:49.394Z,80.70
2018-07-05T06:24:29.349Z,79.10
2018-07-05T06:27:09.220Z,79.10
2018-07-05T06:29:50.026Z,79.00
2018-07-05T06:32:30.021Z,79.80
2018-07-05T06:35:09.889Z,79.50
2018-07-05T06:37:50.678Z,79.40
2018-07-05T06:40:30.623Z,79.40
2018-07-05T06:43:10.770Z,79.50
2018-07-05T06:50:58.573Z,78.70
2018-07-05T06:53:40.615Z,77.90
2018-07-05T06:56:20.604Z,78.50
2018-07-05T06:59:00.776Z,78.20
2018-07-05T07:01:40.843Z,77.10
2018-07-05T07:04:20.890Z,78.50
2018-07-05T07:07:00.769Z,77.50
2018-07-05T07:09:40.586Z,77.40
2018-07-05T07:12:20.330Z,76.80
2018-07-05T07:15:00.348Z,75.80
2018-07-05T07:17:40.613Z,75.50
2018-07-05T07:20:20.718Z,76.10
2018-07-05T07:23:00.769Z,76.50
2018-07-05T07:25:40.638Z,75.70
2018-07-05T07:33:28.953Z,76.60
2018-07-05T07:36:08.922Z,76.20
2018-07-05T07:38:48.976Z,75.80
2018-07-05T07:41:28.925Z,74.10
2018-07-05T07:43:56.667Z,73.20
2018-07-05T07:46:24.236Z,74.80
2018-07-05T07:48:51.803Z,73.50
2018-07-05T07:51:19.750Z,73.20
2018-07-05T07:53:47.320Z,74.10
2018-07-05T07:56:15.738Z,74.50
2018-07-05T07:58:43.501Z,71.90
2018-07-05T08:01:11.143Z,73.20
2018-07-05T08:03:39.227Z,72.00
2018-07-05T08:06:06.971Z,71.30
2018-07-05T08:08:34.598Z,72.30
2018-07-05T08:11:02.153Z,72.50
2018-07-05T08:13:30.463Z,71.70
2018-07-05T08:15:58.030Z,73.00
2018-07-05T08:18:25.614Z,71.10
2018-07-05T08:20:53.921Z,71.00
2018-07-05T08:23:21.484Z,70.00
2018-07-05T08:25:49.060Z,68.60
2018-07-05T08:28:16.603Z,70.40
2018-07-05T08:30:44.182Z,70.10
2018-07-05T08:33:11.729Z,69.80
2018-07-05T08:35:39.280Z,69.40
2018-07-05T08:38:06.840Z,70.00
2018-07-05T08:40:34.400Z,69.50
2018-07-05T08:43:01.982Z,69.80
2018-07-05T08:45:29.550Z,68.90
2018-07-05T08:47:57.134Z,69.70
2018-07-05T08:50:25.482Z,67.00
2018-07-05T08:52:53.387Z,67.30
2018-07-05T08:55:20.991Z,69.80
2018-07-05T08:57:48.530Z,68.40
2018-07-05T09:00:16.369Z,66.30
2018-07-05T09:02:43.911Z,67.20
2018-07-05T09:05:11.517Z,67.90
2018-07-05T09:07:39.591Z,70.10
2018-07-05T09:10:07.123Z,69.30
2018-07-05T09:15:02.476Z,67.40
2018-07-05T09:17:30.079Z,65.90
2018-07-05T09:19:57.691Z,66.00
2018-07-05T09:22:26.055Z,64.60
2018-07-05T09:27:21.419Z,67.10
2018-07-05T09:29:48.975Z,68.00
2018-07-05T09:32:16.581Z,68.50
2018-07-05T09:37:12.037Z,67.00
2018-07-05T09:39:39.527Z,65.50
2018-07-05T09:42:07.091Z,65.70
2018-07-05T09:44:35.663Z,66.70
2018-07-05T09:47:03.453Z,68.90
2018-07-05T14:43:14.888Z,56.50
2018-07-05T14:58:45.905Z,60.60
2018-07-05T15:01:25.904Z,60.60
2018-07-05T15:06:39.867Z,62.10
2018-07-05T15:09:19.842Z,63.10
2018-07-05T15:12:00.731Z,63.20
2018-07-05T15:14:40.512Z,66.00
2018-07-05T15:17:20.572Z,67.90
2018-07-05T15:20:00.494Z,68.20
2018-07-05T15:22:42.670Z,69.00
2018-07-05T15:25:22.828Z,69.30
2018-07-05T15:28:02.756Z,69.90
2018-07-05T15:30:43.485Z,70.10
2018-07-05T15:33:23.461Z,70.80
2018-07-05T15:38:37.485Z,70.90
2018-07-05T15:41:17.451Z,72.00
2018-07-05T15:43:57.371Z,71.90
2018-07-05T15:46:38.228Z,72.10
2018-07-05T15:49:18.424Z,72.30
2018-07-05T15:51:58.245Z,73.10
2018-07-05T15:54:38.120Z,73.70
2018-07-05T15:57:17.944Z,74.50
2018-07-05T15:59:59.238Z,75.50
2018-07-05T16:02:39.052Z,76.20
2018-07-05T16:05:19.004Z,76.90
2018-07-05T16:07:59.382Z,77.20
2018-07-05T16:10:39.465Z,77.50
2018-07-05T16:13:19.432Z,77.90
2018-07-05T16:15:59.439Z,78.00
2018-07-05T16:18:39.355Z,78.30
2018-07-05T16:21:19.551Z,78.90
2018-07-05T16:23:59.543Z,79.70
2018-07-05T16:26:39.442Z,79.90
2018-07-05T16:29:19.292Z,80.10
2018-07-05T16:31:59.041Z,80.30
2018-07-05T16:37:13.673Z,81.20
2018-07-05T16:39:53.527Z,80.90
2018-07-05T16:42:34.391Z,80.70
2018-07-05T16:45:14.330Z,80.70
2018-07-05T16:47:54.386Z,80.50
2018-07-05T16:50:35.401Z,80.00
2018-07-05T16:53:15.299Z,79.50
2018-07-05T16:55:55.096Z,79.00
2018-07-05T16:58:36.185Z,78.00
2018-07-05T17:01:16.249Z,77.20
2018-07-05T17:03:56.184Z,76.80
2018-07-05T17:06:36.350Z,76.20
2018-07-05T17:11:52.413Z,76.10
2018-07-05T17:14:32.491Z,76.00
2018-07-05T17:17:12.430Z,75.70
2018-07-05T17:19:52.962Z,76.10
2018-07-05T17:22:32.958Z,76.80
2018-07-05T17:25:12.978Z,76.60
2018-07-05T17:27:52.974Z,76.60
2018-07-05T17:30:33.002Z,76.70
2018-07-05T17:33:12.973Z,76.30
2018-07-05T17:35:54.152Z,76.70
2018-07-05T17:38:34.180Z,77.40
2018-07-05T17:41:14.029Z,76.70
2018-07-05T17:43:53.834Z,77.00
2018-07-05T17:46:33.721Z,77.50
2018-07-05T17:49:13.711Z,77.80
2018-07-05T17:54:28.681Z,78.00
2018-07-05T17:57:08.671Z,78.10
2018-07-05T17:59:49.073Z,77.30
2018-07-05T18:02:29.011Z,76.60
2018-07-05T18:05:08.840Z,76.20
2018-07-05T18:07:48.729Z,76.20
2018-07-05T18:10:28.744Z,76.30
2018-07-05T18:13:08.823Z,76.10
2018-07-05T18:15:48.729Z,77.20
2018-07-05T18:18:29.269Z,77.40
2018-07-05T18:21:09.048Z,77.30
2018-07-05T18:23:49.234Z,77.70
2018-07-05T18:26:30.431Z,77.30
2018-07-05T18:31:44.489Z,76.50
2018-07-05T18:36:58.413Z,77.30
2018-07-05T18:39:39.083Z,77.50
2018-07-05T18:42:18.977Z,77.70
2018-07-05T18:44:59.006Z,77.60
2018-07-05T18:47:39.632Z,77.50
2018-07-05T18:50:19.830Z,77.40
2018-07-05T18:52:59.759Z,77.40
2018-07-05T18:55:39.848Z,77.10
2018-07-05T19:03:27.629Z,77.10
2018-07-05T19:06:07.729Z,77.40
2018-07-05T19:08:47.589Z,77.30
2018-07-05T19:11:27.428Z,77.90
2018-07-05T19:14:07.301Z,77.20
2018-07-05T19:19:21.201Z,78.00
2018-07-05T19:22:01.211Z,77.70
2018-07-05T19:27:15.394Z,78.90
2018-07-05T19:29:55.291Z,79.00
2018-07-05T19:32:36.101Z,79.00
2018-07-05T19:35:16.180Z,78.60
2018-07-05T19:37:56.175Z,79.00
2018-07-05T19:40:36.192Z,78.90
2018-07-05T19:43:16.013Z,79.70
2018-07-05T19:45:56.230Z,79.70
2018-07-05T19:48:36.251Z,80.00
2018-07-05T19:51:16.197Z,80.00
2018-07-05T19:53:56.050Z,80.10
2018-07-05T19:56:36.345Z,79.50
2018-07-05T20:04:24.981Z,81.70
2018-07-05T20:07:04.966Z,81.50
2018-07-05T20:09:44.957Z,82.50
2018-07-05T20:12:24.870Z,83.50
2018-07-05T20:15:04.964Z,82.80
2018-07-05T20:17:45.143Z,82.60
2018-07-05T20:20:25.045Z,83.10
2018-07-05T20:25:39.699Z,82.60
2018-07-05T20:28:19.605Z,82.30
2018-07-05T20:30:59.641Z,83.50
2018-07-05T20:33:40.268Z,84.30
2018-07-05T20:36:20.202Z,85.10
2018-07-05T20:39:00.011Z,85.40
2018-07-05T20:41:40.703Z,85.60
2018-07-05T20:44:20.834Z,86.50
2018-07-05T20:47:01.022Z,87.00
2018-07-05T20:49:40.854Z,87.30
2018-07-05T20:52:20.674Z,86.50
2018-07-05T20:55:00.482Z,87.30
2018-07-05T21:00:14.435Z,88.20
2018-07-05T21:02:54.482Z,88.80
2018-07-05T21:08:09.440Z,89.70
2018-07-05T21:10:49.376Z,90.40
2018-07-05T21:13:29.444Z,90.70
2018-07-05T21:16:09.431Z,90.90
2018-07-05T21:21:23.451Z,91.20
2018-07-05T21:24:03.456Z,90.50
2018-07-05T21:26:43.420Z,90.50
2018-07-05T21:29:23.322Z,90.50
2018-07-05T21:32:03.465Z,90.80
2018-07-05T21:34:43.290Z,90.80
2018-07-05T21:37:23.330Z,90.10
2018-07-05T21:40:03.063Z,90.50
2018-07-05T21:42:42.821Z,90.90
2018-07-05T21:45:22.860Z,91.80
2018-07-05T21:48:02.955Z,92.00
2018-07-05T21:50:42.765Z,92.40
2018-07-05T21:53:22.731Z,92.60
2018-07-05T21:56:02.785Z,92.90
2018-07-05T21:58:42.671Z,93.10
2018-07-05T22:01:22.556Z,93.20
2018-07-05T22:04:02.416Z,93.30
2018-07-05T22:06:42.307Z,93.20
2018-07-05T22:09:23.371Z,93.40
2018-07-05T22:12:03.251Z,93.20
2018-07-05T22:17:22.611Z,93.50
2018-07-05T22:20:07.992Z,93.60
2018-07-05T22:22:53.097Z,93.60
2018-07-05T22:25:38.586Z,93.60
2018-07-05T22:28:23.802Z,93.50
2018-07-05T22:31:09.075Z,93.20
2018-07-05T22:33:49.036Z,93.20
2018-07-05T22:36:28.993Z,92.90
2018-07-05T22:39:08.907Z,92.60
2018-07-05T22:41:48.744Z,92.50
2018-07-05T22:44:29.521Z,92.30
2018-07-05T22:47:09.534Z,92.40
2018-07-05T22:49:49.898Z,92.90
2018-07-05T22:52:29.881Z,92.40
2018-07-05T22:55:09.864Z,91.90
2018-07-05T22:57:49.871Z,92.30
2018-07-05T23:00:29.722Z,92.70
2018-07-05T23:03:09.552Z,93.20
2018-07-05T23:05:49.447Z,93.60
2018-07-05T23:08:29.469Z,94.00
2018-07-05T23:11:09.414Z,94.00
2018-07-05T23:13:49.380Z,93.90
2018-07-05T23:16:29.321Z,93.90
2018-07-05T23:19:09.199Z,94.10
2018-07-05T23:21:49.041Z,94.10
2018-07-05T23:24:28.921Z,93.90
2018-07-05T23:27:08.780Z,93.50
2018-07-05T23:29:48.646Z,93.30
2018-07-05T23:32:28.535Z,93.60
2018-07-05T23:35:08.457Z,94.00
2018-07-05T23:37:49.075Z,93.70
2018-07-05T23:40:30.102Z,93.40
2018-07-05T23:43:09.950Z,93.50
2018-07-05T23:45:49.772Z,93.40
2018-07-05T23:48:30.559Z,93.30
2018-07-05T23:51:10.884Z,93.10
2018-07-05T23:53:50.884Z,93.30
2018-07-05T23:56:30.709Z,93.10
2018-07-05T23:59:10.793Z,93.30
